createdAt,value
2019-03-19T00:00:03.517Z,99.9
2019-03-19T00:05:03.332Z,99.9
2019-03-19T00:10:05.358Z,99.9
2019-03-19T00:15:05.284Z,99.9
2019-03-19T00:20:10.988Z,99.9
2019-03-19T00:25:03.216Z,99.9
2019-03-19T00:30:03.167Z,99.9
2019-03-19T00:35:03.102Z,99.9
2019-03-19T00:40:05.054Z,99.9
2019-03-19T00:45:10.078Z,99.9
2019-03-19T00:50:03.194Z,99.9
2019-03-19T00:55:05.523Z,99.9
2019-03-19T01:00:03.475Z,99.9
2019-03-19T01:05:05.885Z,99.9
2019-03-19T01:10:05.909Z,99.9
2019-03-19T01:15:05.762Z,99.9
2019-03-19T01:20:05.377Z,99.9
2019-03-19T01:25:07.770Z,99.9
2019-03-19T01:30:07.747Z,99.9
2019-03-19T01:35:02.620Z,99.9
2019-03-19T01:40:05.578Z,99.9
2019-03-19T01:45:08.015Z,99.9
2019-03-19T01:50:02.958Z,99.9
2019-03-19T01:55:02.870Z,99.9
2019-03-19T02:00:02.790Z,99.9
2019-03-19T02:05:07.751Z,99.9
2019-03-19T02:10:05.679Z,99.9
2019-03-19T02:15:10.583Z,99.9
2019-03-19T02:20:07.734Z,99.9
2019-03-19T02:25:02.554Z,99.9
2019-03-19T02:30:07.913Z,99.9
2019-03-19T02:35:02.809Z,99.9
2019-03-19T02:40:05.150Z,99.9
2019-03-19T02:45:05.056Z,99.9
2019-03-19T02:50:08.435Z,99.9
2019-03-19T02:55:03.340Z,99.9
2019-03-19T03:00:02.943Z,99.9
2019-03-19T03:05:10.536Z,99.9
2019-03-19T03:10:21.070Z,99.9
2019-03-19T03:15:08.228Z,99.9
2019-03-19T03:20:02.680Z,99.9
2019-03-19T03:25:02.707Z,99.9
2019-03-19T03:30:03.105Z,99.9
2019-03-19T03:35:08.274Z,99.9
2019-03-19T03:40:03.128Z,99.9
2019-03-19T03:45:05.744Z,99.9
2019-03-19T03:50:05.645Z,99.9
2019-03-19T03:55:02.960Z,99.9
2019-03-19T04:00:02.931Z,99.9
2019-03-19T04:05:02.933Z,99.9
2019-03-19T04:10:08.414Z,99.9
2019-03-19T04:15:05.880Z,99.3
2019-03-19T04:20:05.500Z,99.9
2019-03-19T04:25:05.353Z,99.9
2019-03-19T04:30:05.910Z,99.9
2019-03-19T04:35:08.386Z,99.9
2019-03-19T04:40:15.492Z,99.9
2019-03-19T04:45:05.261Z,99.9
2019-03-19T04:50:10.831Z,99.9
2019-03-19T04:55:03.076Z,99.9
2019-03-19T05:00:03.149Z,99.9
2019-03-19T05:05:05.488Z,99.9
2019-03-19T05:10:02.895Z,99.9
2019-03-19T05:15:07.901Z,99.9
2019-03-19T05:20:03.004Z,99.9
2019-03-19T05:25:05.452Z,99.9
2019-03-19T05:30:05.926Z,99.9
2019-03-19T05:35:08.384Z,99.9
2019-03-19T05:40:10.364Z,99.9
2019-03-19T05:45:05.209Z,99.9
2019-03-19T05:50:03.238Z,99.9
2019-03-19T05:55:03.093Z,99.9
2019-03-19T06:00:05.548Z,99.9
2019-03-19T06:05:05.497Z,99.9
2019-03-19T06:10:05.408Z,99.9
2019-03-19T06:15:02.738Z,99.9
2019-03-19T06:20:05.327Z,99.9
2019-03-19T06:25:07.811Z,99.9
2019-03-19T06:30:02.799Z,99.9
2019-03-19T06:35:05.372Z,99.9
2019-03-19T06:40:05.320Z,99.9
2019-03-19T06:45:05.257Z,99.9
2019-03-19T06:50:05.763Z,99.9
2019-03-19T06:55:03.321Z,99.9
2019-03-19T07:00:08.337Z,99.9
2019-03-19T07:05:03.124Z,99.9
2019-03-19T07:10:02.559Z,99.9
2019-03-19T07:15:05.938Z,99.9
2019-03-19T07:20:20.686Z,99.9
2019-03-19T07:25:07.990Z,99.9
2019-03-19T07:30:05.806Z,99.9
2019-03-19T07:35:15.786Z,99.9
2019-03-19T07:40:08.411Z,99.9
2019-03-19T07:45:03.123Z,99.9
2019-03-19T07:50:08.083Z,99.9
2019-03-19T07:55:05.570Z,99.9
2019-03-19T08:00:05.057Z,99.9
2019-03-19T08:05:08.480Z,99.9
2019-03-19T08:10:05.387Z,99.9
2019-03-19T08:15:02.908Z,99.9
2019-03-19T08:20:18.324Z,99.9
2019-03-19T08:25:10.737Z,99.9
2019-03-19T08:30:05.332Z,99.9
2019-03-19T08:35:05.222Z,99.9
2019-03-19T08:40:02.633Z,99.9
2019-03-19T08:45:02.762Z,99.9
2019-03-19T08:50:02.750Z,99.9
2019-03-19T08:55:05.204Z,99.9
2019-03-19T09:00:08.272Z,99.9
2019-03-19T09:05:08.220Z,99.9
2019-03-19T09:10:07.743Z,99.9
2019-03-19T09:15:07.679Z,99.9
2019-03-19T09:20:02.859Z,99.9
2019-03-19T09:25:07.807Z,99.9
2019-03-19T09:30:02.747Z,99.9
2019-03-19T09:35:07.741Z,99.9
2019-03-19T09:40:10.765Z,99.9
2019-03-19T09:45:18.251Z,99.9
2019-03-19T09:50:08.307Z,99.9
2019-03-19T09:55:05.668Z,99.9
2019-03-19T10:00:05.216Z,99.9
2019-03-19T10:05:02.586Z,99.9
2019-03-19T10:10:05.809Z,99.9
2019-03-19T10:15:05.794Z,99.9
2019-03-19T10:20:05.390Z,99.9
2019-03-19T10:25:05.419Z,99.9
2019-03-19T10:30:05.892Z,99.9
2019-03-19T10:35:08.431Z,99.9
2019-03-19T10:40:07.934Z,99.9
2019-03-19T10:45:15.490Z,99.9
2019-03-19T10:50:02.594Z,99.9
2019-03-19T10:55:16.070Z,99.9
2019-03-19T11:00:05.515Z,99.9
2019-03-19T11:05:05.560Z,99.9
2019-03-19T11:10:05.683Z,99.9
2019-03-19T11:15:05.601Z,99.9
2019-03-19T11:20:02.647Z,99.9
2019-03-19T11:25:02.561Z,99.9
2019-03-19T11:30:06.833Z,99.9
2019-03-19T11:35:07.551Z,99.9
2019-03-19T11:40:02.990Z,99.9
2019-03-19T11:45:05.457Z,99.9
2019-03-19T11:50:08.518Z,99.9
2019-03-19T11:55:05.903Z,99.9
2019-03-19T12:00:18.030Z,99.9
2019-03-19T12:05:07.760Z,99.9
2019-03-19T12:10:05.771Z,99.9
2019-03-19T12:15:03.204Z,99.9
2019-03-19T12:20:05.775Z,99.9
2019-03-19T12:25:02.874Z,99.9
2019-03-19T12:30:02.882Z,99.9
2019-03-19T12:35:03.023Z,99.9
2019-03-19T12:40:08.474Z,99.9
2019-03-19T12:45:05.042Z,99.9
2019-03-19T12:50:10.653Z,99.9
2019-03-19T12:55:08.242Z,99.9
2019-03-19T13:00:03.199Z,99.9
2019-03-19T13:05:03.091Z,99.9
2019-03-19T13:10:05.230Z,97.4
2019-03-19T13:15:10.265Z,99
2019-03-19T13:20:11.173Z,98
2019-03-19T13:25:07.541Z,99.9
2019-03-19T13:30:05.060Z,99.9
2019-03-19T13:35:10.056Z,99.9
2019-03-19T13:40:15.167Z,99.9
2019-03-19T13:45:04.995Z,99.9
2019-03-19T13:50:03.019Z,99.9
2019-03-19T13:55:05.508Z,99.8
2019-03-19T14:00:03.499Z,99.9
2019-03-19T14:05:02.761Z,89.8
2019-03-19T14:10:10.788Z,93.3
2019-03-19T14:15:03.189Z,93.3
2019-03-19T14:20:05.799Z,85.4
2019-03-19T14:25:08.277Z,63.6
2019-03-19T14:30:05.971Z,57.1
2019-03-19T14:35:05.975Z,57.4
2019-03-19T14:40:03.458Z,57.6
2019-03-19T14:45:05.663Z,67.9
2019-03-19T14:50:05.160Z,64.6
2019-03-19T14:55:02.688Z,64.6
2019-03-19T15:00:07.981Z,62.5
2019-03-19T15:05:02.863Z,62.6
2019-03-19T15:10:05.926Z,59.3
2019-03-19T15:15:15.264Z,60.7
2019-03-19T15:20:03.316Z,61
2019-03-19T15:25:03.205Z,70
2019-03-19T15:30:10.910Z,86.2
2019-03-19T15:35:08.220Z,87.3
2019-03-19T15:40:07.742Z,90.9
2019-03-19T15:45:02.632Z,90.9
2019-03-19T15:50:02.652Z,93.8
2019-03-19T15:55:05.166Z,99.9
2019-03-19T16:00:03.112Z,99.9
2019-03-19T16:05:28.469Z,99.9
2019-03-19T16:10:02.976Z,99.9
2019-03-19T16:15:05.403Z,99.9
2019-03-19T16:20:05.035Z,99.9
2019-03-19T16:25:02.441Z,99.9
2019-03-19T16:30:03.454Z,99.9
2019-03-19T16:35:03.410Z,99.9
2019-03-19T16:40:07.911Z,99.9
2019-03-19T16:45:05.349Z,99.9
2019-03-19T16:50:13.503Z,99.9
2019-03-19T16:55:10.904Z,99.9
2019-03-19T17:00:02.875Z,99.9
2019-03-19T17:05:05.378Z,99.9
2019-03-19T17:15:02.710Z,99.9
2019-03-19T17:20:02.711Z,99.9
2019-03-19T17:25:12.836Z,99.9
2019-03-19T17:30:02.620Z,99.9
2019-03-19T17:35:07.607Z,99.9
2019-03-19T17:40:03.086Z,99.9
2019-03-19T17:45:15.678Z,99.9
2019-03-19T17:50:02.640Z,99.9
2019-03-19T17:55:17.871Z,99.9
2019-03-19T18:00:20.636Z,99.9
2019-03-19T18:05:05.193Z,99.9
2019-03-19T18:10:05.286Z,99.9
2019-03-19T18:15:02.608Z,99.9
2019-03-19T18:20:05.262Z,99.9
2019-03-19T18:25:07.786Z,99.9
2019-03-19T18:30:03.384Z,99.9
2019-03-19T18:35:03.057Z,99.9
2019-03-19T18:40:03.492Z,99.9
2019-03-19T18:45:03.420Z,99.9
2019-03-19T18:50:07.601Z,99.9
2019-03-19T18:55:02.491Z,99.9
2019-03-19T19:00:02.525Z,99.9
2019-03-19T19:05:08.521Z,99.9
2019-03-19T19:10:10.567Z,99.9
2019-03-19T19:15:02.755Z,99.9
2019-03-19T19:20:05.358Z,99.9
2019-03-19T19:25:12.844Z,99.9
2019-03-19T19:30:05.477Z,99.9
2019-03-19T19:35:02.796Z,99.9
2019-03-19T19:40:08.310Z,99.9
2019-03-19T19:45:03.254Z,99.9
2019-03-19T19:50:10.827Z,99.9
2019-03-19T19:55:03.121Z,99.9
2019-03-19T20:00:10.775Z,99.9
2019-03-19T20:05:03.939Z,99.9
2019-03-19T20:10:03.451Z,99.9
2019-03-19T20:15:10.905Z,99.9
2019-03-19T20:20:05.492Z,99.9
2019-03-19T20:25:02.921Z,99.9
2019-03-19T20:30:02.901Z,99.9
2019-03-19T20:35:02.908Z,99.9
2019-03-19T20:40:03.333Z,99.9
2019-03-19T20:45:21.021Z,99.9
2019-03-19T20:50:03.026Z,99.9
2019-03-19T20:55:05.475Z,99.9
2019-03-19T21:00:05.993Z,99.9
2019-03-19T21:05:08.444Z,99.9
2019-03-19T21:10:07.919Z,99.9
2019-03-19T21:15:02.782Z,99.9
2019-03-19T21:20:05.365Z,99.9
2019-03-19T21:25:02.724Z,99.9
2019-03-19T21:30:02.761Z,99.9
2019-03-19T21:35:06.189Z,99.9
2019-03-19T21:40:02.616Z,99.9
2019-03-19T21:45:27.832Z,99.9
2019-03-19T21:50:02.802Z,99.9
2019-03-19T21:55:02.740Z,99.9
2019-03-19T22:00:05.219Z,99.9
2019-03-19T22:05:05.103Z,99.9
2019-03-19T22:10:05.318Z,99.9
2019-03-19T22:15:22.710Z,99.9
2019-03-19T22:20:05.292Z,99.9
2019-03-19T22:25:15.309Z,99.9
2019-03-19T22:30:05.791Z,99.9
2019-03-19T22:35:03.158Z,99.9
2019-03-19T22:40:05.139Z,99.9
2019-03-19T22:45:02.521Z,99.9
2019-03-19T22:50:03.581Z,99.9
2019-03-19T22:55:05.860Z,99.9
2019-03-19T23:00:07.880Z,99.9
2019-03-19T23:05:10.823Z,99.9
2019-03-19T23:10:08.325Z,99.9
2019-03-19T23:15:03.074Z,99.9
2019-03-19T23:20:08.142Z,99.9
2019-03-19T23:25:08.064Z,99.9
2019-03-19T23:30:03.004Z,99.9
2019-03-19T23:35:07.973Z,99.9
2019-03-19T23:40:05.960Z,99.9
2019-03-19T23:45:10.996Z,99.9
2019-03-19T23:50:10.570Z,99.9
2019-03-19T23:55:33.448Z,99.9
